Penitas, Texas
Current Conditions -  °F | °C
As of 12:53 AM on Saturday 20 Dec 2014 (Local Time) from KMFE Reporting Station
Overcast Overcast  
Wind Chill: 61°   Ceiling: 1800
Heat Index: 61°   Visibility: 10mi
Dew Point: 55°   Wind: 10mph
Humidity: 81%   Direction: 10°N
Pressure: 30.12"   Gusts: NA
Location:  26.23°N, 98.44°W
Report Text: KMFE 200653Z AUTO 01009KT 10SM OVC018 16/13 A3012 RMK AO2 SLP199 T01610128
Loading
Personal Weather Stations






























Interactive Weather Map New forecast layout! Learn more

10-Day Weather Forecast

Advertisements
Track Severe Weather on mobile